createdAt,value
2023-01-22T00:00:01.309Z,94.51
2023-01-22T00:01:01.318Z,94.62
2023-01-22T00:02:01.279Z,94.51
2023-01-22T00:03:01.243Z,94.62
2023-01-22T00:04:01.319Z,94.62
2023-01-22T00:05:01.246Z,94.41
2023-01-22T00:06:01.226Z,94.41
2023-01-22T00:07:01.237Z,94.51
2023-01-22T00:08:01.195Z,94.51
2023-01-22T00:09:01.201Z,94.51
2023-01-22T00:10:01.182Z,94.62
2023-01-22T00:11:01.186Z,94.82
2023-01-22T00:12:01.186Z,94.72
2023-01-22T00:13:01.140Z,94.62
2023-01-22T00:14:01.241Z,94.51
2023-01-22T00:15:01.119Z,94.62
2023-01-22T00:16:01.237Z,94.62
2023-01-22T00:17:01.121Z,94.72
2023-01-22T00:18:01.085Z,94.72
2023-01-22T00:19:01.095Z,94.72
2023-01-22T00:20:01.095Z,94.72
2023-01-22T00:21:01.072Z,94.82
2023-01-22T00:22:01.058Z,94.72
2023-01-22T00:23:01.073Z,94.72
2023-01-22T00:24:01.026Z,94.62
2023-01-22T00:25:01.011Z,94.51
2023-01-22T00:26:01.030Z,94.62
2023-01-22T00:27:01.010Z,94.76
2023-01-22T00:28:00.985Z,94.62
2023-01-22T00:29:00.969Z,94.66
2023-01-22T00:30:00.993Z,94.76
2023-01-22T00:31:01.169Z,94.76
2023-01-22T00:32:01.044Z,94.66
2023-01-22T00:33:00.939Z,94.66
2023-01-22T00:34:00.916Z,94.66
2023-01-22T00:35:00.910Z,94.66
2023-01-22T00:36:00.901Z,94.76
2023-01-22T00:37:00.960Z,94.87
2023-01-22T00:38:00.889Z,94.66
2023-01-22T00:39:00.861Z,94.56
2023-01-22T00:40:00.848Z,94.66
2023-01-22T00:41:00.874Z,94.66
2023-01-22T00:42:00.831Z,94.56
2023-01-22T00:43:00.866Z,94.45
2023-01-22T00:44:00.812Z,94.45
2023-01-22T00:45:00.805Z,94.56
2023-01-22T00:46:00.820Z,94.66
2023-01-22T00:47:00.776Z,94.76
2023-01-22T00:48:00.807Z,94.76
2023-01-22T00:49:00.752Z,94.76
2023-01-22T00:50:00.764Z,94.76
2023-01-22T00:51:00.751Z,94.87
2023-01-22T00:52:00.750Z,94.76
2023-01-22T00:53:00.730Z,94.76
2023-01-22T00:54:00.696Z,94.56
2023-01-22T00:55:00.687Z,94.56
2023-01-22T00:56:00.739Z,94.66
2023-01-22T00:57:00.668Z,94.66
2023-01-22T00:58:00.688Z,94.45
2023-01-22T00:59:00.643Z,94.45
2023-01-22T01:00:00.651Z,94.76
2023-01-22T01:01:00.672Z,94.76
2023-01-22T01:02:00.664Z,94.87
2023-01-22T01:03:00.632Z,94.76
2023-01-22T01:04:00.597Z,94.76
2023-01-22T01:05:00.615Z,94.87
2023-01-22T01:06:00.591Z,94.76
2023-01-22T01:07:00.559Z,94.76
2023-01-22T01:08:00.573Z,94.76
2023-01-22T01:09:00.536Z,94.76
2023-01-22T01:10:00.527Z,94.66
2023-01-22T01:11:00.514Z,94.76
2023-01-22T01:12:00.581Z,94.76
2023-01-22T01:13:00.507Z,94.76
2023-01-22T01:14:00.495Z,94.66
2023-01-22T01:15:00.468Z,94.66
2023-01-22T01:16:00.507Z,94.76
2023-01-22T01:17:00.458Z,94.87
2023-01-22T01:18:00.453Z,94.87
2023-01-22T01:19:00.431Z,94.98
2023-01-22T01:20:00.415Z,94.98
2023-01-22T01:21:00.451Z,94.87
2023-01-22T01:22:00.409Z,94.87
2023-01-22T01:23:00.405Z,94.87
2023-01-22T01:24:00.387Z,94.76
2023-01-22T01:25:00.412Z,94.76
2023-01-22T01:26:00.356Z,94.87
2023-01-22T01:27:00.341Z,94.87
2023-01-22T01:28:00.346Z,94.87
2023-01-22T01:29:00.325Z,94.76
2023-01-22T01:30:00.325Z,94.45
2023-01-22T01:31:00.498Z,94.56
2023-01-22T01:32:00.355Z,94.45
2023-01-22T01:33:00.304Z,94.45
2023-01-22T01:34:00.292Z,94.66
2023-01-22T01:35:00.252Z,94.76
2023-01-22T01:36:00.268Z,94.76
2023-01-22T01:37:00.252Z,94.87
2023-01-22T01:38:00.243Z,94.98
2023-01-22T01:39:00.254Z,95.18
2023-01-22T01:40:00.212Z,95.08
2023-01-22T01:41:00.190Z,95.18
2023-01-22T01:42:00.190Z,95.18
2023-01-22T01:43:00.190Z,95.18
2023-01-22T01:44:00.160Z,95.29
2023-01-22T01:45:00.155Z,95.29
2023-01-22T01:46:00.165Z,95.29
2023-01-22T01:47:00.244Z,95.29
2023-01-22T01:48:00.136Z,95.39
2023-01-22T01:49:00.111Z,95.50
2023-01-22T01:50:00.147Z,95.39
2023-01-22T01:51:00.121Z,95.29
2023-01-22T01:52:00.126Z,95.18
2023-01-22T01:53:00.112Z,95.08
2023-01-22T01:54:00.092Z,94.98
2023-01-22T01:55:00.043Z,95.08
2023-01-22T01:56:00.030Z,95.18
2023-01-22T01:57:00.033Z,95.18
2023-01-22T01:58:00.027Z,95.18
2023-01-22T01:59:00.033Z,95.08
2023-01-22T02:00:00.036Z,95.18
2023-01-22T02:00:59.997Z,95.18
2023-01-22T02:02:00.029Z,95.29
2023-01-22T02:02:59.967Z,95.39
2023-01-22T02:03:59.946Z,95.39
2023-01-22T02:04:59.929Z,95.39
2023-01-22T02:05:59.937Z,95.50
2023-01-22T02:06:59.914Z,95.39
2023-01-22T02:07:59.913Z,95.39
2023-01-22T02:08:59.886Z,95.39
2023-01-22T02:09:59.908Z,95.60
2023-01-22T02:10:59.861Z,95.50
2023-01-22T02:11:59.866Z,95.50
2023-01-22T02:12:59.860Z,95.29
2023-01-22T02:13:59.840Z,95.29
2023-01-22T02:14:59.850Z,95.39
2023-01-22T02:15:59.851Z,95.39
2023-01-22T02:16:59.811Z,95.50
2023-01-22T02:17:59.806Z,95.39
2023-01-22T02:18:59.775Z,95.39
2023-01-22T02:19:59.818Z,95.39
2023-01-22T02:20:59.764Z,95.29
2023-01-22T02:21:59.746Z,95.39
2023-01-22T02:22:59.773Z,95.50
2023-01-22T02:23:59.736Z,95.50
2023-01-22T02:24:59.716Z,95.50
2023-01-22T02:25:59.706Z,95.60
2023-01-22T02:26:59.717Z,95.60
2023-01-22T02:27:59.702Z,95.60
2023-01-22T02:28:59.720Z,95.60
2023-01-22T02:29:58.665Z,95.60
2023-01-22T02:30:59.710Z,95.60
2023-01-22T02:31:59.670Z,95.50
2023-01-22T02:32:59.657Z,95.50
2023-01-22T02:33:59.619Z,95.60
2023-01-22T02:34:59.600Z,95.60
2023-01-22T02:35:59.594Z,95.70
2023-01-22T02:36:59.604Z,95.70
2023-01-22T02:37:59.596Z,95.60
2023-01-22T02:38:59.571Z,95.70
2023-01-22T02:39:59.571Z,95.70
2023-01-22T02:40:59.549Z,95.81
2023-01-22T02:41:59.543Z,95.81
2023-01-22T02:42:59.534Z,95.81
2023-01-22T02:43:59.514Z,95.81
2023-01-22T02:44:59.498Z,95.91
2023-01-22T02:45:59.583Z,95.91
2023-01-22T02:46:59.493Z,96.01
2023-01-22T02:47:59.486Z,95.91
2023-01-22T02:48:59.460Z,96.01
2023-01-22T02:49:59.470Z,96.01
2023-01-22T02:50:59.477Z,95.91
2023-01-22T02:51:59.422Z,95.91
2023-01-22T02:52:59.438Z,95.91
2023-01-22T02:53:59.418Z,95.70
2023-01-22T02:54:59.395Z,95.60
2023-01-22T02:55:59.405Z,95.60
2023-01-22T02:56:59.387Z,95.70
2023-01-22T02:57:59.440Z,95.81
2023-01-22T02:58:59.352Z,95.81
2023-01-22T02:59:59.337Z,95.91
2023-01-22T03:00:59.349Z,95.81
2023-01-22T03:01:59.354Z,95.70
2023-01-22T03:02:59.364Z,95.70
2023-01-22T03:03:59.286Z,95.60
2023-01-22T03:04:59.326Z,95.60
2023-01-22T03:05:59.279Z,95.70
2023-01-22T03:06:59.257Z,95.70
2023-01-22T03:07:59.315Z,95.81
2023-01-22T03:08:59.278Z,95.81
2023-01-22T03:09:59.234Z,95.81
2023-01-22T03:10:59.241Z,95.81
2023-01-22T03:11:59.209Z,95.81
2023-01-22T03:12:59.216Z,95.60
2023-01-22T03:13:59.235Z,95.70
2023-01-22T03:14:59.179Z,95.70
2023-01-22T03:15:59.168Z,95.70
2023-01-22T03:16:59.174Z,95.70
2023-01-22T03:17:59.168Z,95.81
2023-01-22T03:18:59.137Z,95.81
2023-01-22T03:19:59.130Z,95.91
2023-01-22T03:20:59.139Z,95.81
2023-01-22T03:21:59.124Z,95.81
2023-01-22T03:22:59.111Z,95.91
2023-01-22T03:23:59.074Z,95.91
2023-01-22T03:24:59.150Z,95.91
2023-01-22T03:25:59.066Z,96.01
2023-01-22T03:26:59.055Z,95.81
2023-01-22T03:27:59.047Z,95.91
2023-01-22T03:28:59.044Z,95.81
2023-01-22T03:29:59.073Z,95.81
2023-01-22T03:30:59.048Z,95.91
2023-01-22T03:31:59.058Z,95.91
2023-01-22T03:32:58.980Z,95.91
2023-01-22T03:33:58.988Z,95.91
2023-01-22T03:34:59.000Z,96.01
2023-01-22T03:35:58.959Z,96.01
2023-01-22T03:36:58.948Z,96.01
2023-01-22T03:37:58.935Z,95.91
2023-01-22T03:38:58.938Z,95.81
2023-01-22T03:39:58.952Z,95.81
2023-01-22T03:40:58.893Z,95.81
2023-01-22T03:41:58.889Z,95.81
2023-01-22T03:42:58.885Z,95.91
2023-01-22T03:43:58.883Z,96.01
2023-01-22T03:44:58.850Z,95.97
2023-01-22T03:45:58.907Z,96.01
2023-01-22T03:46:58.841Z,96.01
2023-01-22T03:47:58.815Z,95.91
2023-01-22T03:48:58.823Z,95.81
2023-01-22T03:49:58.821Z,95.91
2023-01-22T03:50:58.798Z,95.97
2023-01-22T03:51:58.777Z,96.01
2023-01-22T03:52:58.783Z,95.87
2023-01-22T03:53:58.767Z,95.87
2023-01-22T03:54:58.744Z,95.87
2023-01-22T03:55:58.737Z,95.76
2023-01-22T03:56:58.730Z,95.87
2023-01-22T03:57:58.714Z,95.97
2023-01-22T03:58:58.717Z,95.97
2023-01-22T03:59:58.703Z,95.97
2023-01-22T04:00:58.711Z,95.97
2023-01-22T04:01:58.737Z,95.97
2023-01-22T04:02:58.706Z,95.97
2023-01-22T04:03:58.667Z,96.08
2023-01-22T04:04:58.635Z,96.08
2023-01-22T04:05:58.620Z,96.08
2023-01-22T04:06:58.615Z,96.18
2023-01-22T04:07:58.603Z,96.18
2023-01-22T04:08:58.604Z,96.18
2023-01-22T04:09:58.587Z,96.08
2023-01-22T04:10:58.574Z,96.08
2023-01-22T04:11:58.605Z,96.08
2023-01-22T04:12:58.546Z,96.18
2023-01-22T04:13:58.572Z,96.08
2023-01-22T04:14:58.564Z,96.08
2023-01-22T04:15:58.513Z,96.08
2023-01-22T04:16:58.557Z,96.18
2023-01-22T04:17:58.554Z,96.18
2023-01-22T04:18:58.507Z,96.18
2023-01-22T04:19:58.508Z,96.08
2023-01-22T04:20:58.531Z,96.18
2023-01-22T04:21:58.500Z,96.18
2023-01-22T04:22:58.441Z,96.18
2023-01-22T04:23:58.446Z,96.18
2023-01-22T04:24:58.421Z,96.18
2023-01-22T04:25:58.410Z,96.18
2023-01-22T04:26:58.391Z,96.18
2023-01-22T04:27:58.396Z,96.18
2023-01-22T04:28:58.405Z,96.18
2023-01-22T04:29:58.361Z,96.08
2023-01-22T04:30:58.545Z,96.18
2023-01-22T04:31:58.346Z,96.18
2023-01-22T04:32:58.336Z,96.18
2023-01-22T04:33:58.341Z,96.08
2023-01-22T04:34:58.407Z,96.08
2023-01-22T04:35:58.315Z,96.08
2023-01-22T04:36:58.300Z,96.18
2023-01-22T04:37:58.285Z,96.18
2023-01-22T04:38:58.301Z,96.18
2023-01-22T04:39:58.253Z,96.18
2023-01-22T04:40:58.260Z,96.28
2023-01-22T04:41:58.235Z,96.18
2023-01-22T04:42:58.249Z,96.18
2023-01-22T04:43:58.258Z,96.18
2023-01-22T04:44:58.197Z,96.18
2023-01-22T04:45:58.283Z,96.18
2023-01-22T04:46:58.179Z,96.18
2023-01-22T04:47:58.185Z,96.18
2023-01-22T04:48:58.190Z,96.18
2023-01-22T04:49:58.153Z,95.97
2023-01-22T04:50:58.180Z,95.97
2023-01-22T04:51:58.132Z,95.97
2023-01-22T04:52:58.116Z,95.97
2023-01-22T04:53:58.166Z,95.97
2023-01-22T04:54:58.090Z,96.08
2023-01-22T04:55:58.092Z,96.08
2023-01-22T04:56:58.085Z,96.18
2023-01-22T04:57:58.095Z,96.08
2023-01-22T04:58:58.078Z,96.08
2023-01-22T04:59:58.044Z,96.08
2023-01-22T05:00:58.133Z,96.18
2023-01-22T05:01:58.030Z,96.18
2023-01-22T05:02:58.026Z,96.18
2023-01-22T05:03:58.020Z,96.08
2023-01-22T05:04:57.996Z,96.08
2023-01-22T05:05:57.974Z,96.18
2023-01-22T05:06:57.973Z,96.18
2023-01-22T05:07:57.981Z,96.18
2023-01-22T05:08:57.967Z,96.18
2023-01-22T05:09:57.949Z,96.18
2023-01-22T05:10:57.932Z,96.18
2023-01-22T05:11:57.913Z,96.18
2023-01-22T05:12:57.921Z,96.18
2023-01-22T05:13:57.900Z,96.18
2023-01-22T05:14:57.927Z,96.18
2023-01-22T05:15:57.905Z,96.18
2023-01-22T05:16:57.866Z,96.28
2023-01-22T05:17:57.883Z,96.39
2023-01-22T05:18:57.851Z,96.39
2023-01-22T05:19:57.831Z,96.39
2023-01-22T05:20:57.815Z,96.28
2023-01-22T05:21:57.837Z,96.28
2023-01-22T05:22:57.826Z,96.18
2023-01-22T05:23:57.803Z,96.18
2023-01-22T05:24:57.761Z,96.18
2023-01-22T05:25:57.775Z,96.18
2023-01-22T05:26:57.786Z,96.28
2023-01-22T05:27:57.756Z,96.28
2023-01-22T05:28:57.765Z,96.28
2023-01-22T05:29:57.732Z,96.28
2023-01-22T05:30:57.790Z,96.39
2023-01-22T05:31:57.738Z,96.39
2023-01-22T05:32:57.682Z,96.28
2023-01-22T05:33:57.688Z,96.28
2023-01-22T05:34:57.671Z,96.28
2023-01-22T05:35:57.674Z,96.39
2023-01-22T05:36:57.693Z,96.39
2023-01-22T05:37:57.629Z,96.28
2023-01-22T05:38:57.656Z,96.39
2023-01-22T05:39:57.610Z,96.39
2023-01-22T05:40:57.595Z,96.39
2023-01-22T05:41:57.591Z,96.39
2023-01-22T05:42:57.617Z,96.49
2023-01-22T05:43:57.581Z,96.49
2023-01-22T05:44:57.581Z,96.59
2023-01-22T05:45:57.572Z,96.49
2023-01-22T05:46:57.539Z,96.39
2023-01-22T05:47:57.528Z,96.39
2023-01-22T05:48:57.559Z,96.39
2023-01-22T05:49:57.507Z,96.39
2023-01-22T05:50:57.551Z,96.39
2023-01-22T05:51:57.496Z,96.39
2023-01-22T05:52:57.481Z,96.39
2023-01-22T05:53:57.533Z,96.39
2023-01-22T05:54:57.454Z,96.49
2023-01-22T05:55:57.446Z,96.39
2023-01-22T05:56:57.427Z,96.39
2023-01-22T05:57:57.456Z,96.39
2023-01-22T05:58:57.420Z,96.39
2023-01-22T05:59:57.388Z,96.39
2023-01-22T06:00:57.377Z,96.49
2023-01-22T06:01:57.377Z,96.49
2023-01-22T06:02:57.458Z,96.49
2023-01-22T06:03:57.408Z,96.49
2023-01-22T06:04:57.394Z,96.59
2023-01-22T06:05:57.327Z,96.39
2023-01-22T06:06:57.391Z,96.39
2023-01-22T06:07:57.312Z,96.39
2023-01-22T06:08:57.372Z,96.28
2023-01-22T06:09:57.289Z,96.39
2023-01-22T06:10:57.276Z,96.39
2023-01-22T06:11:57.274Z,96.39
2023-01-22T06:12:57.263Z,96.39
2023-01-22T06:13:57.254Z,96.49
2023-01-22T06:14:57.257Z,96.59
2023-01-22T06:15:57.273Z,96.59
2023-01-22T06:16:57.237Z,96.59
2023-01-22T06:17:57.193Z,96.59
2023-01-22T06:18:57.187Z,96.59
2023-01-22T06:19:57.198Z,96.70
2023-01-22T06:20:57.168Z,96.70
2023-01-22T06:21:57.160Z,96.59
2023-01-22T06:22:57.171Z,96.70
2023-01-22T06:23:57.138Z,96.70
2023-01-22T06:24:57.162Z,96.70
2023-01-22T06:25:57.104Z,96.70
2023-01-22T06:26:57.107Z,96.59
2023-01-22T06:27:57.088Z,96.59
2023-01-22T06:28:57.116Z,96.70
2023-01-22T06:29:57.086Z,96.59
2023-01-22T06:30:57.111Z,96.66
2023-01-22T06:31:57.106Z,96.59
2023-01-22T06:32:57.044Z,96.55
2023-01-22T06:33:57.053Z,96.55
2023-01-22T06:34:57.030Z,96.55
2023-01-22T06:35:57.015Z,96.66
2023-01-22T06:36:56.989Z,96.66
2023-01-22T06:37:57.069Z,96.76
2023-01-22T06:38:56.993Z,96.76
2023-01-22T06:39:56.998Z,96.76
2023-01-22T06:40:56.974Z,96.66
2023-01-22T06:41:56.939Z,96.76
2023-01-22T06:42:56.930Z,96.76
2023-01-22T06:43:56.959Z,96.76
2023-01-22T06:44:56.926Z,96.76
2023-01-22T06:45:56.898Z,96.76
2023-01-22T06:46:56.886Z,96.76
2023-01-22T06:47:56.915Z,96.76
2023-01-22T06:48:56.872Z,96.76
2023-01-22T06:49:56.867Z,96.76
2023-01-22T06:50:56.865Z,96.86
2023-01-22T06:51:56.849Z,96.76
2023-01-22T06:52:56.846Z,96.76
2023-01-22T06:53:56.806Z,96.76
2023-01-22T06:54:56.830Z,96.76
2023-01-22T06:55:56.797Z,96.76
2023-01-22T06:56:56.794Z,96.76
2023-01-22T06:57:56.812Z,96.76
2023-01-22T06:58:56.756Z,96.76
2023-01-22T06:59:56.777Z,96.76
2023-01-22T07:00:56.740Z,96.76
2023-01-22T07:01:56.791Z,96.86
2023-01-22T07:02:56.722Z,96.86
2023-01-22T07:03:56.788Z,96.86
2023-01-22T07:04:56.707Z,96.86
2023-01-22T07:05:56.676Z,96.86
2023-01-22T07:06:56.663Z,96.86
2023-01-22T07:07:56.679Z,96.97
2023-01-22T07:08:56.655Z,96.97
2023-01-22T07:09:56.660Z,96.97
2023-01-22T07:10:56.627Z,96.97
2023-01-22T07:11:56.675Z,96.97
2023-01-22T07:12:56.610Z,96.86
2023-01-22T07:13:56.604Z,96.86
2023-01-22T07:14:56.599Z,96.86
2023-01-22T07:15:56.623Z,96.97
2023-01-22T07:16:56.594Z,96.97
2023-01-22T07:17:56.559Z,96.97
2023-01-22T07:18:56.596Z,96.97
2023-01-22T07:19:56.546Z,97.07
2023-01-22T07:20:56.530Z,96.97
2023-01-22T07:21:56.506Z,97.07
2023-01-22T07:22:58.537Z,97.07
2023-01-22T07:23:56.505Z,97.17
2023-01-22T07:24:56.503Z,97.17
2023-01-22T07:25:56.513Z,97.07
2023-01-22T07:26:56.478Z,97.07
2023-01-22T07:27:56.436Z,97.17
2023-01-22T07:28:56.436Z,97.17
2023-01-22T07:29:56.459Z,97.17
2023-01-22T07:30:56.515Z,97.28
2023-01-22T07:31:56.471Z,97.28
2023-01-22T07:32:56.387Z,97.28
2023-01-22T07:33:56.380Z,97.17
2023-01-22T07:34:56.385Z,97.28
2023-01-22T07:35:56.355Z,97.28
2023-01-22T07:36:56.345Z,97.28
2023-01-22T07:37:56.338Z,97.28
2023-01-22T07:38:56.329Z,97.28
2023-01-22T07:39:56.335Z,97.28
2023-01-22T07:40:56.308Z,97.28
2023-01-22T07:41:56.317Z,97.28
2023-01-22T07:42:56.277Z,97.28
2023-01-22T07:43:56.312Z,97.38
2023-01-22T07:44:56.320Z,97.38
2023-01-22T07:45:56.254Z,97.38
2023-01-22T07:46:56.328Z,97.38
2023-01-22T07:47:56.224Z,97.49
2023-01-22T07:48:56.225Z,97.49
2023-01-22T07:49:56.244Z,97.49
2023-01-22T07:50:56.248Z,97.49
2023-01-22T07:51:56.191Z,97.49
2023-01-22T07:52:56.178Z,97.49
2023-01-22T07:53:56.173Z,97.49
2023-01-22T07:54:56.170Z,97.55
2023-01-22T07:55:56.149Z,97.55
2023-01-22T07:56:56.135Z,97.55
2023-01-22T07:57:56.114Z,97.55
2023-01-22T07:58:56.120Z,97.55
2023-01-22T07:59:56.121Z,97.55
2023-01-22T08:00:56.136Z,97.55
2023-01-22T08:01:56.136Z,97.55
2023-01-22T08:02:56.069Z,97.55
2023-01-22T08:03:56.087Z,97.55
2023-01-22T08:04:56.060Z,97.65
2023-01-22T08:05:56.034Z,97.65
2023-01-22T08:06:56.023Z,97.65
2023-01-22T08:07:56.024Z,97.65
2023-01-22T08:08:56.012Z,97.65
2023-01-22T08:09:56.017Z,97.75
2023-01-22T08:10:55.984Z,97.75
2023-01-22T08:11:56.017Z,97.75
2023-01-22T08:12:55.967Z,97.75
2023-01-22T08:13:55.949Z,97.75
2023-01-22T08:14:55.988Z,97.75
2023-01-22T08:15:56.151Z,97.65
2023-01-22T08:16:55.916Z,97.65
2023-01-22T08:17:55.937Z,97.65
2023-01-22T08:18:55.887Z,97.65
2023-01-22T08:19:55.916Z,97.65
2023-01-22T08:20:55.875Z,97.75
2023-01-22T08:21:55.861Z,97.75
2023-01-22T08:22:55.857Z,97.75
2023-01-22T08:23:55.841Z,97.75
2023-01-22T08:24:55.840Z,97.75
2023-01-22T08:25:55.814Z,97.75
2023-01-22T08:26:55.810Z,97.75
2023-01-22T08:27:55.805Z,97.86
2023-01-22T08:28:55.782Z,97.86
2023-01-22T08:29:55.801Z,97.86
2023-01-22T08:30:55.777Z,97.86
2023-01-22T08:31:55.899Z,97.86
2023-01-22T08:32:55.772Z,97.81
2023-01-22T08:33:55.750Z,97.81
2023-01-22T08:34:55.734Z,97.81
2023-01-22T08:35:55.741Z,97.81
2023-01-22T08:36:55.692Z,97.81
2023-01-22T08:37:55.695Z,97.81
2023-01-22T08:38:55.687Z,97.81
2023-01-22T08:39:55.686Z,97.81
2023-01-22T08:40:55.677Z,97.92
2023-01-22T08:41:55.660Z,97.81
2023-01-22T08:42:55.639Z,97.81
2023-01-22T08:43:55.627Z,97.81
2023-01-22T08:44:55.636Z,97.81
2023-01-22T08:45:55.718Z,97.81
2023-01-22T08:46:55.604Z,97.81
2023-01-22T08:47:55.584Z,97.81
2023-01-22T08:48:55.591Z,97.81
2023-01-22T08:49:55.584Z,97.81
2023-01-22T08:50:55.575Z,97.81
2023-01-22T08:51:55.541Z,97.81
2023-01-22T08:52:55.535Z,97.71
2023-01-22T08:53:55.513Z,97.71
2023-01-22T08:54:55.529Z,97.81
2023-01-22T08:55:55.519Z,97.81
2023-01-22T08:56:55.504Z,97.81
2023-01-22T08:57:55.485Z,97.81
2023-01-22T08:58:55.478Z,97.71
2023-01-22T09:00:01.148Z,97.71
2023-01-22T09:00:55.527Z,97.71
2023-01-22T09:01:55.467Z,97.81
2023-01-22T09:02:55.422Z,97.71
2023-01-22T09:03:55.433Z,97.81
2023-01-22T09:04:55.446Z,97.71
2023-01-22T09:05:55.414Z,97.81
2023-01-22T09:06:55.380Z,97.81
2023-01-22T09:07:55.377Z,97.81
2023-01-22T09:08:55.381Z,97.81
2023-01-22T09:09:55.361Z,97.81
2023-01-22T09:10:55.330Z,97.81
2023-01-22T09:11:55.321Z,97.77
2023-01-22T09:12:55.311Z,97.67
2023-01-22T09:13:55.302Z,97.67
2023-01-22T09:14:55.315Z,97.67
2023-01-22T09:15:56.692Z,97.56
2023-01-22T09:16:55.278Z,97.56
2023-01-22T09:17:55.317Z,97.56
2023-01-22T09:18:55.262Z,97.56
2023-01-22T09:19:55.279Z,97.56
2023-01-22T09:20:55.230Z,97.56
2023-01-22T09:21:55.230Z,97.56
2023-01-22T09:22:55.211Z,97.56
2023-01-22T09:23:55.246Z,97.56
2023-01-22T09:24:55.187Z,97.56
2023-01-22T09:25:55.184Z,97.45
2023-01-22T09:26:55.162Z,97.45
2023-01-22T09:27:55.179Z,97.45
2023-01-22T09:28:55.142Z,97.45
2023-01-22T09:29:55.122Z,97.45
2023-01-22T09:30:55.192Z,97.45
2023-01-22T09:31:55.184Z,97.56
2023-01-22T09:32:55.124Z,97.56
2023-01-22T09:33:55.079Z,97.45
2023-01-22T09:34:55.078Z,97.45
2023-01-22T09:35:55.136Z,97.56
2023-01-22T09:36:55.059Z,97.56
2023-01-22T09:37:55.058Z,97.45
2023-01-22T09:38:55.036Z,97.35
2023-01-22T09:39:55.033Z,97.35
2023-01-22T09:40:55.040Z,97.35
2023-01-22T09:41:55.031Z,97.35
2023-01-22T09:42:54.994Z,97.31
2023-01-22T09:43:55.018Z,97.31
2023-01-22T09:44:55.001Z,97.20
2023-01-22T09:45:55.051Z,97.20
2023-01-22T09:46:55.706Z,97.20
2023-01-22T09:47:54.925Z,97.20
2023-01-22T09:48:54.986Z,97.20
2023-01-22T09:49:54.907Z,97.20
2023-01-22T09:50:55.739Z,97.10
2023-01-22T09:51:54.898Z,97.10
2023-01-22T09:52:54.884Z,97.20
2023-01-22T09:53:54.869Z,97.20
2023-01-22T09:54:54.913Z,97.20
2023-01-22T09:55:54.866Z,97.31
2023-01-22T09:56:55.636Z,97.20
2023-01-22T09:57:54.821Z,97.20
2023-01-22T09:58:55.630Z,97.20
2023-01-22T09:59:54.802Z,97.20
2023-01-22T10:00:55.642Z,97.10
2023-01-22T10:01:54.798Z,97.20
2023-01-22T10:02:54.780Z,97.10
2023-01-22T10:03:54.765Z,97.20
2023-01-22T10:04:54.803Z,97.20
2023-01-22T10:05:54.791Z,97.20
2023-01-22T10:06:54.742Z,97.10
2023-01-22T10:07:54.712Z,97.10
2023-01-22T10:08:54.730Z,97.10
2023-01-22T10:09:54.706Z,97.10
2023-01-22T10:10:54.707Z,97.10
2023-01-22T10:11:54.705Z,97.10
2023-01-22T10:12:54.657Z,97.20
2023-01-22T10:13:54.657Z,97.20
2023-01-22T10:14:54.652Z,97.06
2023-01-22T10:15:54.648Z,97.06
2023-01-22T10:16:54.713Z,97.06
2023-01-22T10:17:54.611Z,97.06
2023-01-22T10:18:56.719Z,97.06
2023-01-22T10:19:54.628Z,97.06
2023-01-22T10:20:54.613Z,97.06
2023-01-22T10:21:54.568Z,97.06
2023-01-22T10:22:54.571Z,97.06
2023-01-22T10:23:54.571Z,97.06
2023-01-22T10:24:54.574Z,97.27
2023-01-22T10:25:54.568Z,97.27
2023-01-22T10:26:54.661Z,97.27
2023-01-22T10:27:54.526Z,97.27
2023-01-22T10:28:54.573Z,97.37
2023-01-22T10:29:54.485Z,97.27
2023-01-22T10:30:54.581Z,97.27
2023-01-22T10:31:54.632Z,97.37
2023-01-22T10:32:54.444Z,97.47
2023-01-22T10:33:54.427Z,97.58
2023-01-22T10:34:54.490Z,97.58
2023-01-22T10:35:54.438Z,97.58
2023-01-22T10:36:54.420Z,97.58
2023-01-22T10:37:54.395Z,97.68
2023-01-22T10:38:54.373Z,97.68
2023-01-22T10:39:54.389Z,97.74
2023-01-22T10:40:54.382Z,97.74
2023-01-22T10:41:54.426Z,97.74
2023-01-22T10:42:54.390Z,97.74
2023-01-22T10:43:54.350Z,97.74
2023-01-22T10:44:54.309Z,97.85
2023-01-22T10:45:54.409Z,97.95
2023-01-22T10:46:54.305Z,97.95
2023-01-22T10:47:54.331Z,97.95
2023-01-22T10:48:54.387Z,97.95
2023-01-22T10:49:54.276Z,97.95
2023-01-22T10:50:54.305Z,97.95
2023-01-22T10:51:54.263Z,97.95
2023-01-22T10:52:54.293Z,97.95
2023-01-22T10:53:54.224Z,97.85
2023-01-22T10:54:54.229Z,97.95
2023-01-22T10:55:54.282Z,97.85
2023-01-22T10:56:54.247Z,97.85
2023-01-22T10:57:54.182Z,97.74
2023-01-22T10:58:54.204Z,97.74
2023-01-22T10:59:54.198Z,97.64
2023-01-22T11:00:54.168Z,97.64
2023-01-22T11:01:54.173Z,97.64
2023-01-22T11:02:54.173Z,97.43
2023-01-22T11:03:54.130Z,97.43
2023-01-22T11:04:54.220Z,97.43
2023-01-22T11:05:54.148Z,97.43
2023-01-22T11:06:54.071Z,97.43
2023-01-22T11:07:54.068Z,97.43
2023-01-22T11:08:54.177Z,97.43
2023-01-22T11:09:54.127Z,97.43
2023-01-22T11:10:54.131Z,97.33
2023-01-22T11:11:54.038Z,97.33
2023-01-22T11:12:54.061Z,97.33
2023-01-22T11:13:54.077Z,97.22
2023-01-22T11:14:53.996Z,97.22
2023-01-22T11:15:54.066Z,97.22
2023-01-22T11:16:54.011Z,97.22
2023-01-22T11:17:54.010Z,97.22
2023-01-22T11:18:53.978Z,97.22
2023-01-22T11:19:53.979Z,97.22
2023-01-22T11:20:53.985Z,97.22
2023-01-22T11:21:53.935Z,97.22
2023-01-22T11:22:53.913Z,97.12
2023-01-22T11:23:53.955Z,97.12
2023-01-22T11:24:54.011Z,97.12
2023-01-22T11:25:53.907Z,97.12
2023-01-22T11:26:53.868Z,97.12
2023-01-22T11:27:53.867Z,97.12
2023-01-22T11:28:53.864Z,97.12
2023-01-22T11:29:53.879Z,97.02
2023-01-22T11:30:54.019Z,97.02
2023-01-22T11:31:53.979Z,97.02
2023-01-22T11:32:53.849Z,97.02
2023-01-22T11:33:53.821Z,97.02
2023-01-22T11:34:53.781Z,97.02
2023-01-22T11:35:53.814Z,97.02
2023-01-22T11:36:53.761Z,97.02
2023-01-22T11:37:53.759Z,97.02
2023-01-22T11:38:53.726Z,96.97
2023-01-22T11:39:53.745Z,96.86
2023-01-22T11:40:53.783Z,96.86
2023-01-22T11:41:53.703Z,96.86
2023-01-22T11:42:53.735Z,96.86
2023-01-22T11:43:53.718Z,96.86
2023-01-22T11:44:53.700Z,96.86
2023-01-22T11:45:53.772Z,96.66
2023-01-22T11:46:53.678Z,96.66
2023-01-22T11:47:53.677Z,96.66
2023-01-22T11:48:53.634Z,96.66
2023-01-22T11:49:53.663Z,96.55
2023-01-22T11:50:53.655Z,96.55
2023-01-22T11:51:53.618Z,96.66
2023-01-22T11:52:53.600Z,96.66
2023-01-22T11:53:53.574Z,96.66
2023-01-22T11:54:53.559Z,96.66
2023-01-22T11:55:53.566Z,96.66
2023-01-22T11:56:53.562Z,96.66
2023-01-22T11:57:53.538Z,96.76
2023-01-22T11:58:53.528Z,96.76
2023-01-22T11:59:53.536Z,96.66
2023-01-22T12:00:53.510Z,96.66
2023-01-22T12:01:53.502Z,96.55
2023-01-22T12:02:53.574Z,96.55
2023-01-22T12:03:53.571Z,96.45
2023-01-22T12:04:53.482Z,96.34
2023-01-22T12:05:53.451Z,96.45
2023-01-22T12:06:53.442Z,96.34
2023-01-22T12:07:53.424Z,96.34
2023-01-22T12:08:53.496Z,96.34
2023-01-22T12:09:53.413Z,96.34
2023-01-22T12:10:54.951Z,96.24
2023-01-22T12:11:53.375Z,96.24
2023-01-22T12:12:53.372Z,96.34
2023-01-22T12:13:53.368Z,96.24
2023-01-22T12:14:53.342Z,96.24
2023-01-22T12:15:53.375Z,96.24
2023-01-22T12:16:53.324Z,96.20
2023-01-22T12:17:53.343Z,96.20
2023-01-22T12:18:53.306Z,95.99
2023-01-22T12:19:53.277Z,95.89
2023-01-22T12:20:53.333Z,95.99
2023-01-22T12:21:53.294Z,95.99
2023-01-22T12:22:53.298Z,95.89
2023-01-22T12:23:53.243Z,95.99
2023-01-22T12:24:53.308Z,95.99
2023-01-22T12:25:53.245Z,95.89
2023-01-22T12:26:53.267Z,95.89
2023-01-22T12:27:53.213Z,95.78
2023-01-22T12:28:53.228Z,95.78
2023-01-22T12:29:53.194Z,95.78
2023-01-22T12:30:53.318Z,95.78
2023-01-22T12:31:53.260Z,95.78
2023-01-22T12:32:53.256Z,95.68
2023-01-22T12:33:53.162Z,95.57
2023-01-22T12:34:53.175Z,95.57
2023-01-22T12:35:53.264Z,95.57
2023-01-22T12:36:53.264Z,95.57
2023-01-22T12:37:53.125Z,95.68
2023-01-22T12:38:53.137Z,95.78
2023-01-22T12:39:53.084Z,95.68
2023-01-22T12:40:53.148Z,95.64
2023-01-22T12:41:53.059Z,95.64
2023-01-22T12:42:53.061Z,95.64
2023-01-22T12:43:53.020Z,95.64
2023-01-22T12:44:53.022Z,95.53
2023-01-22T12:45:53.048Z,95.43
2023-01-22T12:46:53.019Z,95.53
2023-01-22T12:47:53.026Z,95.53
2023-01-22T12:48:52.966Z,95.43
2023-01-22T12:49:52.965Z,95.43
2023-01-22T12:50:52.993Z,95.53
2023-01-22T12:51:52.972Z,95.53